Time;durP1;ratioP1;P1;durP2;ratioP2;P2;SDS_P1;SDS_P2;PMS_P1;PMS_P2;Temp;Humidity;BMP_temperature;BMP_pressure;BME280_temperature;BME280_humidity;BME280_pressure;Samples;Min_cycle;Max_cycle;Signal;HPM_P1;HPM_P2
2023/02/18 00:01:39;;;;;;;13.60;6.70;;;;;;;4.01;84.96;97977.20;105601;1258;75867;-19
2023/02/18 00:04:08;;;;;;;5.10;4.20;;;;;;;3.83;86.02;97975.55;105579;1261;74511;-19
2023/02/18 00:06:38;;;;;;;9.10;5.10;;;;;;;3.96;86.00;97964.11;105574;1257;62022;-19
2023/02/18 00:09:09;;;;;;;7.30;5.30;;;;;;;4.12;85.41;97961.30;105652;1257;61193;-20
2023/02/18 00:11:38;;;;;;;9.30;4.50;;;;;;;4.04;85.35;97959.81;105299;1257;75059;-21
2023/02/18 00:14:10;;;;;;;7.40;4.60;;;;;;;3.85;86.12;97956.86;105659;1260;75267;-20
2023/02/18 00:16:40;;;;;;;10.70;5.00;;;;;;;3.83;86.72;97951.65;105422;1256;74511;-20
2023/02/18 00:19:14;;;;;;;8.60;5.10;;;;;;;4.07;86.16;97947.39;105301;1256;61972;-20
2023/02/18 00:21:43;;;;;;;6.70;3.20;;;;;;;4.21;85.40;97943.98;105319;1258;62094;-20
2023/02/18 00:24:16;;;;;;;8.60;5.30;;;;;;;4.02;85.57;97932.10;105525;1257;75775;-19
2023/02/18 00:26:45;;;;;;;10.30;5.20;;;;;;;3.88;86.63;97926.91;105343;1264;75549;-19
2023/02/18 00:29:13;;;;;;;9.00;5.50;;;;;;;4.15;85.91;97923.12;105308;1257;74394;-20
2023/02/18 00:31:44;;;;;;;7.40;5.60;;;;;;;4.06;85.81;97911.90;105525;1262;62211;-19
2023/02/18 00:34:13;;;;;;;7.10;4.50;;;;;;;3.86;86.50;97902.67;105590;1263;62038;-20
2023/02/18 00:36:42;;;;;;;9.90;4.60;;;;;;;3.83;87.07;97897.79;105501;1262;75176;-20
2023/02/18 00:39:12;;;;;;;7.30;5.00;;;;;;;4.22;86.03;97895.09;105325;1260;75894;-19
2023/02/18 00:41:41;;;;;;;8.30;4.60;;;;;;;4.29;85.55;97889.63;105377;1261;74371;-20
2023/02/18 00:44:10;;;;;;;6.40;4.20;;;;;;;4.04;85.95;97882.84;105505;1256;61045;-20
2023/02/18 00:46:38;;;;;;;7.90;4.90;;;;;;;3.92;87.18;97869.85;105637;1257;61598;-20
2023/02/18 00:49:08;;;;;;;7.20;5.00;;;;;;;4.38;86.09;97864.02;105516;1262;75358;-20
2023/02/18 00:51:36;;;;;;;8.70;5.10;;;;;;;4.45;85.25;97849.79;105633;1256;75279;-20
2023/02/18 00:54:05;;;;;;;9.70;4.70;;;;;;;4.14;86.23;97838.80;105867;1253;74358;-20
2023/02/18 00:56:33;;;;;;;9.00;5.70;;;;;;;4.00;87.51;97830.41;105865;1252;63482;-20
2023/02/18 01:06:42;;;;;;;7.00;5.00;;;;;;;4.24;87.30;97804.77;102674;1289;600230;-18
2023/02/18 01:09:11;;;;;;;7.80;4.50;;;;;;;4.50;86.94;97802.66;105189;1264;61800;-19
2023/02/18 01:11:40;;;;;;;6.20;3.80;;;;;;;4.66;85.92;97791.09;105147;1268;62070;-19
2023/02/18 01:14:09;;;;;;;7.80;5.20;;;;;;;4.57;85.99;97784.92;105204;1267;73883;-19
2023/02/18 01:16:37;;;;;;;6.50;4.10;;;;;;;4.27;87.05;97782.06;105160;1264;76066;-19
2023/02/18 01:19:10;;;;;;;5.20;3.70;;;;;;;4.37;87.62;97775.66;104785;1263;1807239;-20
2023/02/18 01:21:38;;;;;;;7.00;4.90;;;;;;;4.73;86.65;97771.32;104989;1260;61887;-19
2023/02/18 01:24:07;;;;;;;8.80;5.20;;;;;;;4.75;85.89;97766.35;105235;1266;62163;-19
2023/02/18 01:26:35;;;;;;;6.40;4.70;;;;;;;4.49;86.94;97757.54;105280;1263;73935;-19
2023/02/18 01:29:04;;;;;;;8.20;4.50;;;;;;;4.41;87.88;97752.33;105229;1261;75952;-19
2023/02/18 01:31:32;;;;;;;7.00;3.60;;;;;;;4.82;86.76;97743.45;105675;1254;74174;-19
2023/02/18 01:34:01;;;;;;;7.70;3.80;;;;;;;5.04;85.67;97739.70;105697;1254;61711;-19
2023/02/18 01:36:30;;;;;;;6.30;3.70;;;;;;;4.89;85.85;97728.13;105630;1260;61140;-19
2023/02/18 01:38:58;;;;;;;6.00;4.00;;;;;;;4.70;86.76;97727.22;105683;1257;74419;-19
2023/02/18 01:41:27;;;;;;;5.10;3.40;;;;;;;4.76;87.04;97722.77;105641;1260;75911;-19
2023/02/18 01:44:10;;;;;;;5.70;3.60;;;;;;;5.18;85.94;97713.84;105651;1257;74198;-19
2023/02/18 01:46:39;;;;;;;5.40;3.40;;;;;;;5.24;85.13;97710.03;105670;1254;61935;-19
2023/02/18 01:49:07;;;;;;;5.50;3.60;;;;;;;5.05;85.76;97698.31;105713;1257;62115;-19
2023/02/18 01:51:42;;;;;;;5.80;3.40;;;;;;;4.88;86.57;97701.20;105598;1254;74698;-19
2023/02/18 01:54:21;;;;;;;4.00;3.20;;;;;;;5.13;86.59;97685.27;105530;1255;75966;-19
2023/02/18 01:56:57;;;;;;;4.10;2.60;;;;;;;5.39;85.56;97692.69;105489;1254;73200;-19
2023/02/18 01:59:32;;;;;;;4.80;2.70;;;;;;;5.26;85.52;97685.27;105479;1262;61875;-19
2023/02/18 02:02:00;;;;;;;4.30;2.60;;;;;;;5.02;86.34;97683.59;105614;1254;61062;-19
2023/02/18 02:04:30;;;;;;;4.70;2.70;;;;;;;5.18;86.81;97675.25;105688;1256;74212;-19
2023/02/18 02:06:58;;;;;;;4.00;3.00;;;;;;;5.49;85.59;97669.81;105669;1260;76303;-19
2023/02/18 02:09:28;;;;;;;2.60;2.10;;;;;;;5.43;85.35;97668.06;105696;1257;73488;-19
2023/02/18 02:12:28;;;;;;;4.40;2.40;;;;;;;5.25;85.85;97660.38;105496;1254;61877;-19
2023/02/18 02:15:07;;;;;;;4.00;2.60;;;;;;;5.23;86.29;97663.70;105544;1262;61970;-19
2023/02/18 02:17:48;;;;;;;4.70;2.50;;;;;;;5.53;85.63;97671.94;105511;1254;74622;-19
2023/02/18 02:20:41;;;;;;;4.30;2.80;;;;;;;5.51;85.29;97674.02;105560;1254;75959;-19
2023/02/18 02:23:22;;;;;;;3.20;2.10;;;;;;;5.25;85.80;97660.95;105609;1257;74159;-19
2023/02/18 02:26:08;;;;;;;2.70;2.30;;;;;;;5.36;86.50;97665.60;105544;1259;61092;-19
2023/02/18 02:29:04;;;;;;;3.20;2.50;;;;;;;5.75;85.23;97660.81;105322;1262;62146;-19
2023/02/18 02:32:05;;;;;;;3.20;2.20;;;;;;;5.72;84.92;97655.92;105613;1255;73408;-19
2023/02/18 02:34:53;;;;;;;4.00;2.80;;;;;;;5.48;85.74;97649.92;105593;1262;75837;-19
2023/02/18 02:37:39;;;;;;;5.20;3.10;;;;;;;5.53;86.59;97655.91;105653;1255;74196;-19
2023/02/18 02:40:18;;;;;;;4.30;2.80;;;;;;;5.86;85.09;97649.07;105435;1260;61883;-19
2023/02/18 02:43:06;;;;;;;3.90;2.60;;;;;;;5.84;85.02;97643.02;105335;1260;61832;-19
2023/02/18 02:45:50;;;;;;;5.40;3.50;;;;;;;5.63;85.82;97634.61;105655;1254;74739;-19
2023/02/18 02:48:25;;;;;;;4.00;3.00;;;;;;;5.63;86.55;97643.55;105625;1260;74971;-19
2023/02/18 02:51:33;;;;;;;3.50;2.70;;;;;;;6.00;85.53;97645.64;105163;1254;73019;-19
2023/02/18 02:54:27;;;;;;;5.50;3.50;;;;;;;6.03;84.87;97642.98;105540;1254;61999;-19
2023/02/18 02:57:22;;;;;;;4.50;2.70;;;;;;;5.83;85.50;97643.13;105651;1260;61173;-19
2023/02/18 03:00:04;;;;;;;3.70;2.30;;;;;;;5.77;86.41;97641.88;105506;1254;75309;-19
2023/02/18 03:02:44;;;;;;;4.00;3.00;;;;;;;6.17;85.35;97639.45;105343;1264;75867;-19
2023/02/18 03:06:09;;;;;;;4.20;2.80;;;;;;;6.15;85.11;97631.72;105515;1262;73516;-19
2023/02/18 03:09:03;;;;;;;4.20;3.50;;;;;;;5.94;85.99;97641.52;105194;1267;62162;-19
2023/02/18 03:12:02;;;;;;;5.60;3.80;;;;;;;5.87;86.90;97628.42;105229;1266;61918;-19
2023/02/18 03:14:41;;;;;;;6.10;3.30;;;;;;;6.25;85.89;97629.94;105165;1262;74273;-19
2023/02/18 03:17:48;;;;;;;5.00;3.70;;;;;;;6.28;85.36;97619.90;105178;1265;75979;-19
2023/02/18 03:20:24;;;;;;;4.90;2.90;;;;;;;6.00;86.34;97623.30;104985;1264;74010;-19
2023/02/18 03:22:53;;;;;;;4.10;3.20;;;;;;;5.98;86.97;97618.39;105152;1267;64460;-19
2023/02/18 03:25:21;;;;;;;4.90;3.60;;;;;;;6.34;86.03;97622.63;105244;1262;61158;-19
2023/02/18 03:27:52;;;;;;;4.10;3.20;;;;;;;6.37;85.27;97613.96;105250;1265;74436;-19
2023/02/18 03:30:32;;;;;;;4.30;3.50;;;;;;;6.19;85.79;97616.86;105150;1263;76272;-19
2023/02/18 03:33:05;;;;;;;5.00;3.40;;;;;;;6.08;86.38;97622.77;104829;1264;74346;-19
2023/02/18 03:35:34;;;;;;;4.50;3.10;;;;;;;6.34;86.06;97616.96;104937;1262;61226;-19
2023/02/18 03:38:11;;;;;;;5.40;3.10;;;;;;;6.53;84.87;97606.34;104797;1262;61250;-19
2023/02/18 03:40:40;;;;;;;10.20;3.60;;;;;;;6.45;85.10;97606.13;105334;1256;74511;-19
2023/02/18 03:43:08;;;;;;;4.40;3.20;;;;;;;6.24;85.60;97609.14;105409;1257;76173;-19
2023/02/18 03:45:38;;;;;;;4.60;3.00;;;;;;;6.19;86.39;97609.92;105499;1257;74708;-19
2023/02/18 03:48:09;;;;;;;4.20;2.60;;;;;;;6.54;85.00;97601.08;105604;1257;62199;-19
2023/02/18 03:50:39;;;;;;;5.40;3.60;;;;;;;6.62;84.23;97600.90;105560;1259;62681;-20
2023/02/18 03:53:11;;;;;;;4.90;3.70;;;;;;;6.39;84.35;97605.09;105499;1257;74809;-19
2023/02/18 03:55:41;;;;;;;4.70;3.10;;;;;;;6.16;85.46;97601.10;105456;1256;75967;-20
2023/02/18 03:58:09;;;;;;;5.70;2.90;;;;;;;6.27;85.56;97597.88;105199;1261;74428;-19
2023/02/18 04:00:39;;;;;;;4.10;3.40;;;;;;;6.59;84.48;97596.16;105203;1256;61668;-20
2023/02/18 04:03:08;;;;;;;5.80;4.70;;;;;;;6.60;84.12;97604.48;105206;1260;61621;-20
2023/02/18 04:05:38;;;;;;;6.10;4.80;;;;;;;6.43;84.71;97595.11;105415;1259;75446;-20
2023/02/18 04:08:06;;;;;;;5.90;3.60;;;;;;;6.25;85.63;97601.69;105426;1257;76081;-20
2023/02/18 04:10:36;;;;;;;4.80;3.00;;;;;;;6.37;86.03;97592.91;105362;1254;73485;-20
2023/02/18 04:13:05;;;;;;;5.20;3.30;;;;;;;6.73;84.50;97586.79;105512;1254;61941;-20
2023/02/18 04:15:33;;;;;;;5.20;4.30;;;;;;;6.74;83.83;97570.04;105465;1259;62086;-20
2023/02/18 04:18:03;;;;;;;5.80;4.00;;;;;;;6.47;84.60;97570.17;105513;1259;74815;-20
2023/02/18 04:20:31;;;;;;;5.90;3.10;;;;;;;6.33;85.38;97591.17;105496;1259;75365;-20
2023/02/18 04:23:03;;;;;;;4.40;3.40;;;;;;;6.52;84.91;97588.31;105472;1254;74552;-20
2023/02/18 04:25:31;;;;;;;5.30;3.80;;;;;;;6.66;83.89;97578.64;105131;1255;61941;-20
2023/02/18 04:28:03;;;;;;;6.60;4.10;;;;;;;6.58;83.80;97582.96;105408;1259;62059;-20
2023/02/18 04:30:32;;;;;;;5.80;4.30;;;;;;;6.40;84.50;97581.61;105170;1254;74827;-20
2023/02/18 04:33:02;;;;;;;6.50;3.20;;;;;;;6.39;84.93;97594.09;105511;1256;75839;-20
2023/02/18 04:35:31;;;;;;;6.60;3.50;;;;;;;6.70;83.76;97582.79;105413;1258;74426;-20
2023/02/18 04:38:01;;;;;;;5.10;3.60;;;;;;;6.74;82.92;97588.61;105418;1254;62167;-20
2023/02/18 04:40:29;;;;;;;7.00;3.40;;;;;;;6.60;83.34;97596.95;105256;1254;61145;-21
2023/02/18 04:42:58;;;;;;;5.70;3.60;;;;;;;6.39;84.05;97584.11;105419;1254;74610;-21
2023/02/18 04:45:27;;;;;;;4.90;3.30;;;;;;;6.48;84.16;97591.80;105490;1257;75894;-20
2023/02/18 04:47:55;;;;;;;5.70;3.80;;;;;;;6.72;82.91;97601.39;105164;1254;74278;-20
2023/02/18 04:50:24;;;;;;;4.80;3.90;;;;;;;6.68;82.62;97589.71;105467;1254;61978;-20
2023/02/18 04:52:52;;;;;;;4.80;3.60;;;;;;;6.53;83.15;97585.86;105450;1259;61605;-22
2023/02/18 04:55:21;;;;;;;4.70;3.60;;;;;;;6.30;83.47;97576.60;105501;1254;74722;-21
2023/02/18 04:57:49;;;;;;;5.60;3.60;;;;;;;6.45;82.97;97559.58;105195;1255;75840;-20
2023/02/18 05:00:19;;;;;;;5.80;3.40;;;;;;;6.64;81.90;97579.86;105468;1254;73363;-20
2023/02/18 05:02:47;;;;;;;4.20;3.70;;;;;;;6.48;81.72;97569.17;105501;1258;61670;-20
2023/02/18 05:05:16;;;;;;;3.90;3.50;;;;;;;6.26;82.28;97569.36;105220;1256;62099;-21
2023/02/18 05:07:45;;;;;;;5.00;3.30;;;;;;;6.10;82.84;97564.34;105588;1256;74824;-21
2023/02/18 05:10:19;;;;;;;4.80;3.40;;;;;;;6.35;81.66;97552.27;105601;1256;76156;-20
2023/02/18 05:12:48;;;;;;;6.40;3.60;;;;;;;6.35;81.26;97542.19;105612;1255;74188;-20
2023/02/18 05:15:16;;;;;;;5.00;3.70;;;;;;;6.25;81.07;97549.77;105640;1256;61961;-21
2023/02/18 05:17:47;;;;;;;3.30;2.80;;;;;;;5.99;81.83;97553.59;105620;1259;61120;-21
2023/02/18 05:20:16;;;;;;;4.30;3.20;;;;;;;6.11;81.41;97553.30;105531;1256;74841;-21
2023/02/18 05:22:45;;;;;;;6.10;3.60;;;;;;;6.33;80.13;97562.38;105625;1253;75880;-21
2023/02/18 05:25:13;;;;;;;5.80;3.40;;;;;;;6.27;79.73;97572.55;105576;1256;73156;-21
2023/02/18 05:27:42;;;;;;;5.70;3.20;;;;;;;6.05;79.74;97558.42;105759;1253;61852;-21
2023/02/18 05:30:11;;;;;;;4.50;3.00;;;;;;;5.89;79.44;97558.71;105867;1251;61752;-21
2023/02/18 05:32:39;;;;;;;6.20;3.40;;;;;;;6.11;78.50;97572.01;105880;1257;74379;-21
2023/02/18 05:35:08;;;;;;;5.70;3.20;;;;;;;6.19;77.14;97574.48;105875;1256;75730;-21
2023/02/18 05:37:36;;;;;;;4.00;2.60;;;;;;;6.13;77.22;97579.77;105562;1253;74242;-21
2023/02/18 05:40:06;;;;;;;3.70;2.50;;;;;;;5.90;77.37;97570.48;105566;1251;61811;-21
2023/02/18 05:42:35;;;;;;;3.00;2.40;;;;;;;5.74;77.66;97587.40;105558;1257;61925;-21
2023/02/18 05:45:03;;;;;;;3.90;2.40;;;;;;;5.79;77.64;97604.39;105897;1253;75474;-21
2023/02/18 05:47:32;;;;;;;6.70;3.30;;;;;;;5.93;76.25;97575.98;105883;1253;76245;-21
2023/02/18 05:50:03;;;;;;;2.70;2.20;;;;;;;5.86;75.73;97594.32;105739;1254;73221;-21
2023/02/18 05:52:32;;;;;;;4.90;2.00;;;;;;;5.65;75.87;97603.30;105512;1257;61886;-21
2023/02/18 05:55:07;;;;;;;3.00;2.30;;;;;;;5.46;75.96;97593.52;105639;1256;61893;-21
2023/02/18 05:57:36;;;;;;;8.30;2.00;;;;;;;5.29;76.23;97605.36;105640;1251;75090;-22
2023/02/18 06:00:07;;;;;;;2.80;1.90;;;;;;;5.52;75.21;97586.80;105624;1256;76188;-21
2023/02/18 06:02:36;;;;;;;2.70;1.70;;;;;;;5.73;73.99;97615.73;105526;1251;72919;-22
2023/02/18 06:05:05;;;;;;;2.60;2.20;;;;;;;5.58;73.70;97628.69;105554;1251;61212;-23
2023/02/18 06:07:34;;;;;;;3.30;1.50;;;;;;;5.39;73.66;97633.14;105603;1256;62034;-24
2023/02/18 06:10:03;;;;;;;2.70;1.60;;;;;;;5.19;73.71;97629.74;105791;1250;75145;-23
2023/02/18 06:12:36;;;;;;;3.60;1.20;;;;;;;4.98;73.74;97630.63;105496;1260;74653;-22
2023/02/18 06:15:05;;;;;;;1.80;1.10;;;;;;;4.93;73.82;97638.77;105801;1251;74453;-22
2023/02/18 06:17:34;;;;;;;2.80;1.00;;;;;;;5.14;72.72;97623.30;105555;1256;62197;-22
2023/02/18 06:20:02;;;;;;;3.40;1.00;;;;;;;5.20;71.99;97649.68;105680;1253;62021;-22
2023/02/18 06:22:31;;;;;;;2.90;1.40;;;;;;;5.13;71.73;97648.85;105706;1250;75252;-23
2023/02/18 06:24:59;;;;;;;6.40;1.40;;;;;;;4.97;71.83;97639.65;105762;1250;75540;-22
2023/02/18 06:27:29;;;;;;;2.00;1.00;;;;;;;4.88;72.32;97659.91;105591;1251;74719;-23
2023/02/18 06:29:58;;;;;;;2.10;1.00;;;;;;;4.79;71.48;97646.73;105721;1251;61126;-22
2023/02/18 06:32:26;;;;;;;4.10;1.40;;;;;;;4.70;71.69;97637.88;105917;1250;62001;-23
2023/02/18 06:34:55;;;;;;;7.40;1.00;;;;;;;4.78;70.87;97643.88;105872;1250;75353;-23
2023/02/18 06:37:24;;;;;;;1.30;0.80;;;;;;;5.06;69.60;97664.91;105879;1250;75570;-23
2023/02/18 06:39:52;;;;;;;5.40;1.30;;;;;;;5.11;69.01;97662.60;105836;1250;73979;-23
2023/02/18 06:42:21;;;;;;;1.50;0.90;;;;;;;5.08;68.86;97666.98;105759;1251;62072;-23
2023/02/18 06:44:49;;;;;;;2.10;1.00;;;;;;;4.94;69.31;97673.93;105879;1254;61902;-23
2023/02/18 06:47:18;;;;;;;3.30;0.90;;;;;;;4.87;68.83;97658.64;105811;1250;75658;-23
2023/02/18 06:49:46;;;;;;;1.50;0.60;;;;;;;4.86;69.45;97691.05;105990;1254;75872;-23
2023/02/18 06:52:14;;;;;;;1.40;0.80;;;;;;;4.77;70.08;97694.19;106007;1251;74180;-23
2023/02/18 06:54:43;;;;;;;4.90;1.40;;;;;;;4.75;68.97;97682.65;105711;1251;61044;-24
2023/02/18 06:57:12;;;;;;;3.90;0.90;;;;;;;4.75;68.13;97652.93;105696;1251;62244;-24
2023/02/18 06:59:40;;;;;;;5.00;1.10;;;;;;;4.75;67.99;97679.72;105803;1250;75298;-25
2023/02/18 07:02:12;;;;;;;3.30;0.90;;;;;;;4.75;67.91;97673.56;105696;1251;76101;-25
2023/02/18 07:04:40;;;;;;;5.40;1.00;;;;;;;4.77;68.33;97701.77;105366;1251;73219;-25
2023/02/18 07:07:09;;;;;;;4.20;1.40;;;;;;;4.80;67.65;97707.55;105935;1250;61119;-25
2023/02/18 07:09:37;;;;;;;5.80;1.50;;;;;;;4.98;66.76;97697.33;106021;1251;62210;-25
2023/02/18 07:12:06;;;;;;;3.90;0.90;;;;;;;4.89;67.78;97720.08;105964;1250;75308;-25
2023/02/18 07:14:35;;;;;;;2.20;0.90;;;;;;;4.81;67.13;97717.94;105970;1250;75733;-26
2023/02/18 07:17:04;;;;;;;3.00;0.90;;;;;;;4.72;65.85;97697.33;105971;1254;74369;-26
2023/02/18 07:19:32;;;;;;;3.70;1.30;;;;;;;4.71;66.14;97720.27;105944;1251;61149;-26
2023/02/18 07:22:00;;;;;;;3.80;0.90;;;;;;;4.67;65.82;97721.77;105750;1251;61690;-26
2023/02/18 07:24:29;;;;;;;2.50;0.80;;;;;;;4.65;65.55;97721.23;105743;1254;75559;-24
2023/02/18 07:26:58;;;;;;;3.60;1.00;;;;;;;4.66;65.71;97718.08;105596;1250;76002;-25
2023/02/18 07:29:26;;;;;;;3.20;1.00;;;;;;;4.61;66.18;97726.49;105704;1251;74589;-26
2023/02/18 07:31:54;;;;;;;4.00;1.00;;;;;;;4.64;65.31;97711.52;105757;1251;61084;-26
2023/02/18 07:34:24;;;;;;;3.30;0.80;;;;;;;4.61;65.32;97708.30;105680;1254;61867;-26
2023/02/18 07:36:53;;;;;;;3.70;0.90;;;;;;;4.65;66.01;97718.66;105609;1250;75502;-25
2023/02/18 07:39:21;;;;;;;3.50;0.80;;;;;;;4.66;67.15;97732.84;105648;1257;75559;-25
2023/02/18 07:41:50;;;;;;;9.20;0.90;;;;;;;4.97;65.94;97715.99;105848;1251;74154;-24
2023/02/18 07:44:18;;;;;;;2.80;0.90;;;;;;;5.38;64.38;97711.88;105697;1250;62069;-26
2023/02/18 07:46:46;;;;;;;4.60;1.00;;;;;;;5.46;63.86;97712.98;105754;1251;61784;-26
2023/02/18 07:49:15;;;;;;;5.20;1.00;;;;;;;5.44;63.63;97709.69;105697;1254;75622;-25
2023/02/18 07:51:47;;;;;;;4.60;1.10;;;;;;;5.37;62.77;97691.31;105786;1250;75830;-25
2023/02/18 07:54:20;;;;;;;2.20;0.80;;;;;;;5.28;63.90;97702.23;105639;1250;74478;-25
2023/02/18 07:56:49;;;;;;;1.10;0.70;;;;;;;5.19;64.44;97724.88;105730;1250;61052;-25
2023/02/18 07:59:17;;;;;;;3.70;1.10;;;;;;;5.14;64.74;97716.73;105771;1254;61895;-25
2023/02/18 08:01:46;;;;;;;1.70;0.80;;;;;;;5.13;65.14;97717.35;105782;1250;75342;-25
2023/02/18 08:04:14;;;;;;;4.90;1.40;;;;;;;5.11;65.24;97705.45;105695;1250;75865;-25
2023/02/18 08:06:45;;;;;;;2.30;1.10;;;;;;;5.11;63.96;97685.96;105924;1250;74461;-25
2023/02/18 08:09:14;;;;;;;6.40;1.00;;;;;;;5.08;63.94;97690.68;105859;1251;61764;-25
2023/02/18 08:11:42;;;;;;;3.50;1.00;;;;;;;5.06;64.38;97710.98;105961;1251;62345;-25
2023/02/18 08:14:11;;;;;;;2.40;1.00;;;;;;;5.04;64.31;97703.95;105593;1251;75344;-25
2023/02/18 08:16:40;;;;;;;3.50;1.10;;;;;;;4.99;64.68;97720.02;105589;1250;75862;-25
2023/02/18 08:19:09;;;;;;;4.60;1.30;;;;;;;4.90;64.65;97695.21;105704;1250;74096;-26
2023/02/18 08:21:37;;;;;;;2.70;1.10;;;;;;;4.86;64.89;97718.55;105569;1253;61278;-26
2023/02/18 08:24:07;;;;;;;3.60;0.70;;;;;;;4.81;64.15;97717.44;105697;1251;61797;-25
2023/02/18 08:26:36;;;;;;;5.80;1.30;;;;;;;4.72;64.62;97722.80;105739;1250;74127;-25
2023/02/18 08:29:05;;;;;;;6.80;1.60;;;;;;;4.67;64.16;97729.31;105699;1250;76196;-25
2023/02/18 08:31:34;;;;;;;5.40;1.20;;;;;;;4.61;64.41;97721.21;105727;1250;74141;-25
2023/02/18 08:34:03;;;;;;;7.20;1.10;;;;;;;4.63;63.62;97715.60;105855;1250;61217;-25
2023/02/18 08:36:32;;;;;;;2.70;1.20;;;;;;;4.61;63.98;97728.08;105709;1254;62088;-25
2023/02/18 08:39:03;;;;;;;2.90;1.10;;;;;;;4.57;63.75;97720.13;105739;1252;74449;-25
2023/02/18 08:41:33;;;;;;;4.50;1.20;;;;;;;4.52;63.82;97717.39;105714;1250;76144;-25
2023/02/18 08:44:01;;;;;;;3.40;1.10;;;;;;;4.56;62.75;97716.77;105702;1251;73214;-25
2023/02/18 08:46:30;;;;;;;4.30;1.40;;;;;;;4.59;62.44;97719.47;105768;1253;61150;-25
2023/02/18 08:49:03;;;;;;;2.60;1.10;;;;;;;4.58;62.88;97748.60;105785;1250;62124;-25
2023/02/18 08:51:32;;;;;;;5.50;1.30;;;;;;;4.54;62.80;97725.02;105589;1250;74779;-25
2023/02/18 08:54:01;;;;;;;5.40;1.10;;;;;;;4.55;63.17;97739.16;105757;1254;76058;-25
2023/02/18 08:56:31;;;;;;;4.60;1.20;;;;;;;4.56;63.19;97738.66;105968;1251;74468;-25
2023/02/18 08:58:59;;;;;;;3.70;1.20;;;;;;;4.53;63.38;97731.27;106038;1254;61089;-25
2023/02/18 09:01:28;;;;;;;7.70;1.40;;;;;;;4.55;63.28;97723.21;105919;1256;62027;-25
2023/02/18 09:03:56;;;;;;;7.20;1.50;;;;;;;4.57;64.26;97721.81;105951;1256;75143;-25
2023/02/18 09:06:25;;;;;;;3.50;1.20;;;;;;;4.55;65.01;97740.60;105982;1250;76151;-25
2023/02/18 09:08:54;;;;;;;3.90;0.90;;;;;;;4.53;65.38;97732.30;105864;1251;74480;-24
2023/02/18 09:11:22;;;;;;;4.30;1.60;;;;;;;4.50;64.92;97712.07;105699;1250;61190;-25
2023/02/18 09:13:54;;;;;;;5.50;1.20;;;;;;;4.52;64.45;97705.27;105589;1251;61589;-25
2023/02/18 09:16:23;;;;;;;2.70;1.10;;;;;;;4.52;65.53;97735.84;105658;1251;74203;-25
2023/02/18 09:18:53;;;;;;;4.70;1.10;;;;;;;4.50;65.26;97720.02;105886;1254;76450;-25
2023/02/18 09:21:22;;;;;;;2.20;0.80;;;;;;;4.52;65.01;97732.60;105700;1253;74457;-25
2023/02/18 09:23:52;;;;;;;5.30;1.10;;;;;;;4.49;65.19;97734.84;105932;1255;61103;-25
2023/02/18 09:26:25;;;;;;;4.20;1.30;;;;;;;4.49;65.55;97750.98;105901;1250;61804;-25
2023/02/18 09:28:56;;;;;;;9.40;1.30;;;;;;;4.52;65.50;97736.81;105893;1250;75673;-25
2023/02/18 09:31:26;;;;;;;6.20;1.40;;;;;;;4.53;65.17;97747.61;105962;1251;75521;-25
2023/02/18 09:33:59;;;;;;;3.20;1.10;;;;;;;4.52;65.92;97753.16;105919;1250;73487;-25
2023/02/18 09:36:28;;;;;;;4.10;1.20;;;;;;;4.51;65.60;97718.07;105692;1251;61154;-25
2023/02/18 09:38:56;;;;;;;2.40;1.10;;;;;;;4.48;66.05;97752.95;105935;1255;61828;-25
2023/02/18 09:41:33;;;;;;;4.10;1.10;;;;;;;4.46;66.03;97749.48;105892;1251;75185;-26
2023/02/18 09:44:12;;;;;;;2.90;1.30;;;;;;;4.55;65.20;97694.52;105518;1259;75798;-26
2023/02/18 09:46:57;;;;;;;2.40;1.00;;;;;;;4.99;64.47;97743.39;105480;1251;74025;-26
2023/02/18 09:49:27;;;;;;;4.70;1.20;;;;;;;5.15;63.44;97738.48;105439;1259;61507;-26
2023/02/18 09:52:05;;;;;;;4.60;1.30;;;;;;;5.10;62.81;97707.25;105709;1259;61126;-26
2023/02/18 09:54:33;;;;;;;3.50;1.00;;;;;;;4.99;63.59;97723.38;105709;1251;74677;-25
2023/02/18 09:57:03;;;;;;;4.30;1.10;;;;;;;4.99;64.11;97749.23;105736;1250;75929;-26
2023/02/18 09:59:31;;;;;;;5.30;1.40;;;;;;;4.83;63.08;97704.73;105761;1257;74324;-26
2023/02/18 10:02:00;;;;;;;4.20;0.80;;;;;;;4.89;62.22;97693.05;105734;1250;61182;-24
2023/02/18 10:04:34;;;;;;;2.70;1.00;;;;;;;4.89;62.68;97732.27;105584;1258;61872;-24
2023/02/18 10:07:02;;;;;;;5.10;1.20;;;;;;;4.91;62.59;97731.92;105617;1253;75324;-27
2023/02/18 10:09:35;;;;;;;4.50;1.10;;;;;;;4.86;61.88;97709.27;105555;1258;75779;-26
2023/02/18 10:12:16;;;;;;;4.10;1.30;;;;;;;4.88;61.41;97714.59;105450;1257;74219;-24
2023/02/18 10:14:57;;;;;;;7.60;1.20;;;;;;;4.94;62.80;97739.48;105378;1258;61157;-27
2023/02/18 10:17:29;;;;;;;3.80;1.20;;;;;;;4.91;61.99;97739.87;105473;1255;61453;-24
2023/02/18 10:19:58;;;;;;;4.50;1.20;;;;;;;4.84;61.25;97717.50;105463;1259;73777;-28
2023/02/18 10:22:28;;;;;;;3.40;1.10;;;;;;;4.83;61.02;97709.23;105659;1255;76603;-25
2023/02/18 10:25:02;;;;;;;4.10;1.10;;;;;;;4.88;60.68;97722.04;105790;1253;74452;-25
2023/02/18 10:27:36;;;;;;;1.90;1.00;;;;;;;4.93;61.34;97734.20;105571;1253;61133;-26
2023/02/18 10:30:13;;;;;;;3.30;0.90;;;;;;;4.98;61.73;97735.20;105430;1253;62041;-26
2023/02/18 10:32:43;;;;;;;3.00;0.80;;;;;;;5.02;61.15;97735.03;105519;1253;75303;-25
2023/02/18 10:35:17;;;;;;;2.30;1.00;;;;;;;5.03;61.18;97725.71;105690;1259;76009;-25
2023/02/18 10:38:04;;;;;;;3.70;1.30;;;;;;;4.95;60.34;97704.30;105693;1253;73525;-26
2023/02/18 10:40:39;;;;;;;6.10;1.30;;;;;;;4.97;61.26;97730.28;105946;1254;61208;-25
2023/02/18 10:43:26;;;;;;;6.70;1.00;;;;;;;4.91;61.29;97717.16;105579;1251;61193;-25
2023/02/18 10:46:06;;;;;;;2.70;1.10;;;;;;;5.00;61.75;97710.41;105786;1253;75443;-25
2023/02/18 10:48:50;;;;;;;3.40;1.10;;;;;;;5.12;61.14;97716.37;105466;1253;74840;-25
2023/02/18 10:51:22;;;;;;;4.60;1.20;;;;;;;5.18;61.16;97682.45;105488;1252;74449;-25
2023/02/18 10:53:51;;;;;;;7.70;1.70;;;;;;;5.18;61.17;97690.02;105548;1251;61076;-25
2023/02/18 10:56:38;;;;;;;3.10;1.20;;;;;;;5.15;61.15;97696.84;105671;1252;61173;-25
2023/02/18 10:59:11;;;;;;;6.10;1.30;;;;;;;5.14;61.15;97722.91;105766;1257;74364;-25
2023/02/18 11:01:40;;;;;;;3.20;1.60;;;;;;;5.08;60.69;97687.98;105802;1253;75586;-25
2023/02/18 11:04:19;;;;;;;2.90;1.50;;;;;;;4.99;60.37;97706.73;105680;1258;73490;-25
2023/02/18 11:06:48;;;;;;;5.50;1.20;;;;;;;4.96;60.35;97673.41;105497;1258;61157;-26
2023/02/18 11:09:33;;;;;;;6.10;1.30;;;;;;;4.94;62.11;97729.14;105500;1253;61593;-26
2023/02/18 11:12:04;;;;;;;8.40;1.50;;;;;;;4.94;62.34;97729.87;105596;1253;75085;-25
2023/02/18 11:14:47;;;;;;;5.00;1.50;;;;;;;4.89;61.65;97699.72;105558;1253;76127;-27
2023/02/18 11:17:22;;;;;;;4.00;1.40;;;;;;;4.79;60.79;97690.24;105603;1253;73824;-26
2023/02/18 11:19:52;;;;;;;2.50;0.90;;;;;;;4.77;62.04;97724.10;105706;1252;61649;-26
2023/02/18 11:22:22;;;;;;;6.20;1.90;;;;;;;4.75;61.37;97693.46;105731;1253;61515;-26
2023/02/18 11:24:56;;;;;;;3.60;1.30;;;;;;;4.74;61.57;97704.38;105732;1257;75333;-26
2023/02/18 11:27:30;;;;;;;2.80;1.10;;;;;;;4.71;62.46;97721.15;105692;1260;75663;-27
2023/02/18 11:30:04;;;;;;;5.40;1.80;;;;;;;4.71;62.11;97698.95;105796;1257;73965;-25
2023/02/18 11:32:34;;;;;;;8.30;1.10;;;;;;;4.69;62.29;97714.41;105821;1254;61374;-24
2023/02/18 11:35:03;;;;;;;4.10;1.40;;;;;;;4.75;62.85;97721.33;105713;1259;61269;-25
2023/02/18 11:37:32;;;;;;;3.40;1.10;;;;;;;4.73;62.94;97724.09;105544;1253;75246;-25
2023/02/18 11:40:01;;;;;;;6.10;1.60;;;;;;;4.68;62.64;97721.73;105866;1253;76065;-25
2023/02/18 11:42:30;;;;;;;5.20;1.70;;;;;;;4.65;62.96;97740.83;105619;1254;74526;-24
2023/02/18 11:44:59;;;;;;;2.70;1.10;;;;;;;4.64;63.54;97732.20;105597;1253;61448;-27
2023/02/18 11:47:33;;;;;;;3.80;1.30;;;;;;;4.58;63.02;97705.63;105558;1251;61109;-25
2023/02/18 11:50:09;;;;;;;3.60;1.10;;;;;;;4.57;63.17;97720.46;105532;1258;74382;-24
2023/02/18 11:52:46;;;;;;;4.40;1.30;;;;;;;4.58;63.28;97734.17;105532;1254;75774;-26
2023/02/18 11:55:19;;;;;;;2.60;1.10;;;;;;;4.58;63.30;97727.09;105559;1254;73445;-24
2023/02/18 11:58:04;;;;;;;4.30;1.00;;;;;;;4.63;63.49;97744.97;105520;1259;61186;-24
2023/02/18 12:00:44;;;;;;;2.90;1.30;;;;;;;4.58;63.09;97714.42;105568;1258;62087;-25
2023/02/18 12:03:38;;;;;;;3.00;1.00;;;;;;;4.63;63.37;97740.48;105435;1253;74160;-24
2023/02/18 12:06:17;;;;;;;2.90;0.80;;;;;;;4.60;63.39;97734.84;105758;1254;76285;-27